createdAt,value
2022-12-18T00:01:07.141Z,68.02
2022-12-18T00:03:37.341Z,67.04
2022-12-18T00:06:04.177Z,66.40
2022-12-18T00:08:30.683Z,67.09
2022-12-18T00:11:04.545Z,65.96
2022-12-18T00:13:33.785Z,65.74
2022-12-18T00:16:05.189Z,66.06
2022-12-18T00:18:31.967Z,66.21
2022-12-18T00:21:03.791Z,66.52
2022-12-18T00:23:30.934Z,66.32
2022-12-18T00:26:05.340Z,66.81
2022-12-18T00:28:31.876Z,67.55
2022-12-18T00:31:07.016Z,68.43
2022-12-18T00:33:34.121Z,67.97
2022-12-18T00:36:22.719Z,67.72
2022-12-18T00:38:49.935Z,67.78
2022-12-18T00:41:44.327Z,67.75
2022-12-18T00:44:13.826Z,67.83
2022-12-18T00:46:40.343Z,67.73
2022-12-18T00:49:07.225Z,67.53
2022-12-18T00:51:33.679Z,67.68
2022-12-18T00:54:00.080Z,66.47
2022-12-18T00:56:26.653Z,66.67
2022-12-18T00:58:53.660Z,67.89
2022-12-18T01:01:20.801Z,68.67
2022-12-18T01:03:47.631Z,68.78
2022-12-18T01:06:15.605Z,67.14
2022-12-18T01:08:42.252Z,68.19
2022-12-18T01:11:10.945Z,70.52
2022-12-18T01:13:37.613Z,69.38
2022-12-18T01:16:04.598Z,69.32
2022-12-18T01:18:31.185Z,67.78
2022-12-18T01:20:57.756Z,68.00
2022-12-18T01:23:26.984Z,67.92
2022-12-18T01:25:53.510Z,67.63
2022-12-18T01:28:19.924Z,68.59
2022-12-18T01:30:46.384Z,68.59
2022-12-18T01:33:12.788Z,69.23
2022-12-18T01:35:43.446Z,69.02
2022-12-18T01:38:10.537Z,69.04
2022-12-18T01:40:37.496Z,68.82
2022-12-18T01:43:03.996Z,68.44
2022-12-18T01:45:33.041Z,68.22
2022-12-18T01:48:07.020Z,67.80
2022-12-18T01:50:39.095Z,67.67
2022-12-18T01:53:14.051Z,68.01
2022-12-18T01:55:49.006Z,68.58
2022-12-18T01:58:16.131Z,68.35
2022-12-18T02:00:42.833Z,67.04
2022-12-18T02:03:09.697Z,68.58
2022-12-18T02:05:51.180Z,70.33
2022-12-18T02:08:26.758Z,69.90
2022-12-18T02:11:08.368Z,68.96
2022-12-18T02:13:53.114Z,69.27
2022-12-18T02:16:30.373Z,68.88
2022-12-18T02:19:00.279Z,69.18
2022-12-18T02:21:42.071Z,68.34
2022-12-18T02:24:54.998Z,68.04
2022-12-18T02:27:21.448Z,68.16
2022-12-18T02:29:58.932Z,69.64
2022-12-18T02:32:40.234Z,69.81
2022-12-18T02:35:09.620Z,69.92
2022-12-18T02:37:38.047Z,70.02
2022-12-18T02:40:05.719Z,68.65
2022-12-18T02:42:33.349Z,67.95
2022-12-18T02:44:59.913Z,68.10
2022-12-18T02:47:33.706Z,68.68
2022-12-18T02:50:15.425Z,67.68
2022-12-18T02:52:47.910Z,67.63
2022-12-18T02:55:27.763Z,68.02
2022-12-18T02:57:56.142Z,68.03
2022-12-18T03:00:32.703Z,68.36
2022-12-18T03:03:03.010Z,67.51
2022-12-18T03:05:39.605Z,66.81
2022-12-18T03:08:16.516Z,67.75
2022-12-18T03:10:58.995Z,67.71
2022-12-18T03:13:40.728Z,67.24
2022-12-18T03:16:11.967Z,67.21
2022-12-18T03:18:51.480Z,67.24
2022-12-18T03:21:23.179Z,67.71
2022-12-18T03:23:53.220Z,67.46
2022-12-18T03:26:23.253Z,66.97
2022-12-18T03:28:58.480Z,68.04
2022-12-18T03:31:28.660Z,67.18
2022-12-18T03:33:58.728Z,67.50
2022-12-18T03:36:25.978Z,66.18
2022-12-18T03:38:52.638Z,65.84
2022-12-18T03:41:29.570Z,67.07
2022-12-18T03:44:16.908Z,66.83
2022-12-18T03:46:57.218Z,66.07
2022-12-18T03:49:31.251Z,66.74
2022-12-18T03:52:10.643Z,65.27
2022-12-18T03:54:38.218Z,64.74
2022-12-18T03:57:12.895Z,65.30
2022-12-18T03:59:40.951Z,65.09
2022-12-18T04:02:09.468Z,65.89
2022-12-18T04:04:39.452Z,67.08
2022-12-18T04:07:07.104Z,67.77
2022-12-18T04:09:35.094Z,66.59
2022-12-18T04:12:01.674Z,68.13
2022-12-18T04:14:28.126Z,68.44
2022-12-18T04:16:57.611Z,67.49
2022-12-18T04:19:24.104Z,66.73
2022-12-18T04:21:50.519Z,67.13
2022-12-18T04:24:16.962Z,66.08
2022-12-18T04:26:43.382Z,66.78
2022-12-18T04:29:09.853Z,67.01
2022-12-18T04:31:36.278Z,66.67
2022-12-18T04:34:02.768Z,66.57
2022-12-18T04:36:29.154Z,66.03
2022-12-18T04:38:55.854Z,65.74
2022-12-18T04:41:22.616Z,65.82
2022-12-18T04:43:49.064Z,65.67
2022-12-18T04:46:15.766Z,65.65
2022-12-18T04:48:42.290Z,66.58
2022-12-18T04:51:08.754Z,67.68
2022-12-18T04:53:35.400Z,67.78
2022-12-18T04:56:11.365Z,66.89
2022-12-18T04:58:40.012Z,66.83
2022-12-18T05:01:08.363Z,67.88
2022-12-18T05:03:36.095Z,68.45
2022-12-18T05:06:03.386Z,67.28
2022-12-18T05:08:29.862Z,67.43
2022-12-18T05:11:04.523Z,67.37
2022-12-18T05:13:33.036Z,68.52
2022-12-18T05:15:59.678Z,67.44
2022-12-18T05:18:26.707Z,67.88
2022-12-18T05:20:54.192Z,67.21
2022-12-18T05:23:21.955Z,66.08
2022-12-18T05:25:56.913Z,65.34
2022-12-18T05:28:25.876Z,66.35
2022-12-18T05:30:57.975Z,65.89
2022-12-18T05:33:26.095Z,66.27
2022-12-18T05:35:58.273Z,65.46
2022-12-18T05:38:27.052Z,66.23
2022-12-18T05:40:54.028Z,67.88
2022-12-18T05:43:22.557Z,68.12
2022-12-18T05:45:49.924Z,68.61
2022-12-18T05:48:16.890Z,68.97
2022-12-18T05:50:48.510Z,67.48
2022-12-18T05:53:17.474Z,66.69
2022-12-18T05:55:44.877Z,68.47
2022-12-18T05:58:12.615Z,69.10
2022-12-18T06:00:41.244Z,68.37
2022-12-18T06:03:09.591Z,69.06
2022-12-18T06:05:38.225Z,69.46
2022-12-18T06:08:05.348Z,68.21
2022-12-18T06:10:32.049Z,68.45
2022-12-18T06:12:58.472Z,67.79
2022-12-18T06:15:25.427Z,69.21
2022-12-18T06:17:51.846Z,70.08
2022-12-18T06:20:18.406Z,70.56
2022-12-18T06:22:44.819Z,70.81
2022-12-18T06:25:11.777Z,69.12
2022-12-18T06:27:38.266Z,68.91
2022-12-18T06:30:05.810Z,69.37
2022-12-18T06:32:32.209Z,68.18
2022-12-18T06:34:58.608Z,68.50
2022-12-18T06:37:28.024Z,69.93
2022-12-18T06:39:54.947Z,70.01
2022-12-18T06:42:24.212Z,69.06
2022-12-18T06:44:51.001Z,69.98
2022-12-18T06:47:17.451Z,69.50
2022-12-18T06:49:44.083Z,68.43
2022-12-18T06:52:10.503Z,70.16
2022-12-18T06:54:36.905Z,67.96
2022-12-18T06:57:03.331Z,68.37
2022-12-18T06:59:30.086Z,67.90
2022-12-18T07:01:56.644Z,67.37
2022-12-18T07:04:23.207Z,67.42
2022-12-18T07:06:49.816Z,67.91
2022-12-18T07:09:16.247Z,66.96
2022-12-18T07:11:42.641Z,66.58
2022-12-18T07:14:09.053Z,66.26
2022-12-18T07:16:35.542Z,67.16
2022-12-18T07:19:01.984Z,66.73
2022-12-18T07:21:28.592Z,65.70
2022-12-18T07:23:55.012Z,65.31
2022-12-18T07:26:22.807Z,66.82
2022-12-18T07:28:49.990Z,66.48
2022-12-18T07:31:19.508Z,65.99
2022-12-18T07:33:48.768Z,64.71
2022-12-18T07:36:15.538Z,65.06
2022-12-18T07:38:42.249Z,64.36
2022-12-18T07:41:11.213Z,64.62
2022-12-18T07:43:38.850Z,64.20
2022-12-18T07:46:06.546Z,64.16
2022-12-18T07:48:33.230Z,64.50
2022-12-18T07:51:05.495Z,64.61
2022-12-18T07:53:33.568Z,65.20
2022-12-18T07:56:26.600Z,64.75
2022-12-18T07:58:49.348Z,64.72
2022-12-18T08:01:15.906Z,65.32
2022-12-18T08:03:43.038Z,67.05
2022-12-18T08:06:10.581Z,66.97
2022-12-18T08:08:37.841Z,65.93
2022-12-18T08:11:04.408Z,64.67
2022-12-18T08:13:30.872Z,64.56
2022-12-18T08:15:59.182Z,65.46
2022-12-18T08:18:26.340Z,64.65
2022-12-18T08:20:52.817Z,65.82
2022-12-18T08:23:19.287Z,65.10
2022-12-18T08:25:45.704Z,66.47
2022-12-18T08:28:12.239Z,64.98
2022-12-18T08:30:38.804Z,62.67
2022-12-18T08:33:05.338Z,62.07
2022-12-18T08:35:38.807Z,59.75
2022-12-18T08:38:07.569Z,59.62
2022-12-18T08:40:34.115Z,56.83
2022-12-18T08:43:19.036Z,56.11
2022-12-18T08:45:45.432Z,53.43
2022-12-18T08:48:11.938Z,51.42
2022-12-18T08:50:38.350Z,50.47
2022-12-18T08:53:04.930Z,49.66
2022-12-18T08:55:31.402Z,46.86
2022-12-18T08:57:57.863Z,47.68
2022-12-18T09:00:24.427Z,47.17
2022-12-18T09:02:50.981Z,47.91
2022-12-18T09:05:17.503Z,49.48
2022-12-18T09:07:43.962Z,48.67
2022-12-18T09:10:11.270Z,45.99
2022-12-18T09:12:37.701Z,44.10
2022-12-18T09:15:04.643Z,43.42
2022-12-18T09:17:31.199Z,44.19
2022-12-18T09:19:57.706Z,45.19
2022-12-18T09:22:24.144Z,44.11
2022-12-18T09:24:50.567Z,45.26
2022-12-18T09:27:16.950Z,47.65
2022-12-18T09:29:43.513Z,48.25
2022-12-18T09:32:09.921Z,48.87
2022-12-18T09:34:36.390Z,48.71
2022-12-18T09:37:03.056Z,48.39
2022-12-18T09:39:29.473Z,50.45
2022-12-18T09:41:58.572Z,47.93
2022-12-18T09:44:33.627Z,47.42
2022-12-18T09:47:21.513Z,46.51
2022-12-18T09:49:51.666Z,47.95
2022-12-18T09:52:31.496Z,48.08
2022-12-18T09:55:02.541Z,50.50
2022-12-18T09:57:32.282Z,53.81
2022-12-18T10:00:27.931Z,54.13
2022-12-18T10:03:02.094Z,54.99
2022-12-18T10:05:38.719Z,56.16
2022-12-18T10:08:22.203Z,56.42
2022-12-18T10:11:01.237Z,57.85
2022-12-18T10:13:27.583Z,57.52
2022-12-18T10:16:10.791Z,58.16
2022-12-18T10:19:00.253Z,59.19
2022-12-18T10:21:40.979Z,58.60
2022-12-18T10:24:27.651Z,57.94
2022-12-18T10:27:00.579Z,59.92
2022-12-18T10:29:27.192Z,60.11
2022-12-18T10:31:53.644Z,59.18
2022-12-18T10:34:20.048Z,57.99
2022-12-18T10:36:48.637Z,57.83
2022-12-18T10:39:20.511Z,57.63
2022-12-18T10:41:47.229Z,58.50
2022-12-18T10:44:21.992Z,57.92
2022-12-18T10:46:51.286Z,58.87
2022-12-18T10:49:30.766Z,59.02
2022-12-18T10:52:19.785Z,60.05
2022-12-18T10:55:02.751Z,61.00
2022-12-18T10:57:39.562Z,61.45
2022-12-18T11:00:31.211Z,61.63
2022-12-18T11:02:58.749Z,61.78
2022-12-18T11:05:33.888Z,61.12
2022-12-18T11:08:01.953Z,60.79
2022-12-18T11:10:34.315Z,60.79
2022-12-18T11:13:24.007Z,59.98
2022-12-18T11:15:51.652Z,60.65
2022-12-18T11:18:29.086Z,62.09
2022-12-18T11:21:06.677Z,59.83
2022-12-18T11:23:33.115Z,58.88
2022-12-18T11:26:05.749Z,59.93
2022-12-18T11:28:38.614Z,59.62
2022-12-18T11:31:28.726Z,61.22
2022-12-18T11:34:29.052Z,60.46
2022-12-18T11:36:56.340Z,59.80
2022-12-18T11:39:35.841Z,59.09
2022-12-18T11:42:25.122Z,60.13
2022-12-18T11:44:57.116Z,61.57
2022-12-18T11:47:33.846Z,60.46
2022-12-18T11:50:02.471Z,60.15
2022-12-18T11:52:40.279Z,59.53
2022-12-18T11:55:25.649Z,60.90
2022-12-18T11:58:09.818Z,60.31
2022-12-18T12:00:44.578Z,60.26
2022-12-18T12:03:33.992Z,59.34
2022-12-18T12:06:09.368Z,60.26
2022-12-18T12:08:35.735Z,61.07
2022-12-18T12:11:16.679Z,59.38
2022-12-18T12:13:49.244Z,59.88
2022-12-18T12:16:32.652Z,59.95
2022-12-18T12:19:17.150Z,59.85
2022-12-18T12:21:53.752Z,59.98
2022-12-18T12:24:26.315Z,60.07
2022-12-18T12:26:58.656Z,61.05
2022-12-18T12:29:53.092Z,59.21
2022-12-18T12:32:38.354Z,59.64
2022-12-18T12:35:34.029Z,60.25
2022-12-18T12:38:12.552Z,60.80
2022-12-18T12:40:53.761Z,60.45
2022-12-18T12:43:27.998Z,60.94
2022-12-18T12:46:04.231Z,61.90
2022-12-18T12:48:50.923Z,60.99
2022-12-18T12:51:21.232Z,60.39
2022-12-18T12:53:49.148Z,60.69
2022-12-18T12:56:18.863Z,61.73
2022-12-18T12:59:16.431Z,63.02
2022-12-18T13:01:53.699Z,63.10
2022-12-18T13:04:23.192Z,62.81
2022-12-18T13:07:11.591Z,62.80
2022-12-18T13:10:17.470Z,62.76
2022-12-18T13:12:57.406Z,61.68
2022-12-18T13:15:44.783Z,60.45
2022-12-18T13:18:21.684Z,59.34
2022-12-18T13:20:55.326Z,60.00
2022-12-18T13:23:24.899Z,61.07
2022-12-18T13:26:00.308Z,58.88
2022-12-18T13:28:48.900Z,59.76
2022-12-18T13:31:36.365Z,58.80
2022-12-18T13:34:27.713Z,58.25
2022-12-18T13:36:57.442Z,58.91
2022-12-18T13:39:35.336Z,58.83
2022-12-18T13:42:08.580Z,60.12
2022-12-18T13:44:44.270Z,61.63
2022-12-18T13:47:29.607Z,61.17
2022-12-18T13:49:57.406Z,60.90
2022-12-18T13:52:34.270Z,58.65
2022-12-18T13:55:06.129Z,59.67
2022-12-18T13:57:35.553Z,59.91
2022-12-18T14:00:25.744Z,60.61
2022-12-18T14:02:53.226Z,59.99
2022-12-18T14:05:39.380Z,61.17
2022-12-18T14:08:12.464Z,61.96
2022-12-18T14:10:48.720Z,61.31
2022-12-18T14:13:39.197Z,62.63
2022-12-18T14:16:08.379Z,61.89
2022-12-18T14:18:58.554Z,61.86
2022-12-18T14:21:33.441Z,62.59
2022-12-18T14:24:19.520Z,61.80
2022-12-18T14:26:47.707Z,62.21
2022-12-18T14:29:26.419Z,61.89
2022-12-18T14:32:05.444Z,61.23
2022-12-18T14:34:31.858Z,63.17
2022-12-18T14:36:58.237Z,63.28
2022-12-18T14:39:26.335Z,62.44
2022-12-18T14:41:54.061Z,62.90
2022-12-18T14:44:22.257Z,63.35
2022-12-18T14:46:51.588Z,63.16
2022-12-18T14:49:20.643Z,64.04
2022-12-18T14:51:54.129Z,64.48
2022-12-18T14:54:22.577Z,64.69
2022-12-18T14:57:01.956Z,63.70
2022-12-18T14:59:30.359Z,63.76
2022-12-18T15:02:12.125Z,63.08
2022-12-18T15:04:42.993Z,62.69
2022-12-18T15:07:19.360Z,63.89
2022-12-18T15:10:11.629Z,65.04
2022-12-18T15:12:42.548Z,65.10
2022-12-18T15:15:33.762Z,64.77
2022-12-18T15:18:13.662Z,64.34
2022-12-18T15:21:08.369Z,64.37
2022-12-18T15:23:52.728Z,63.57
2022-12-18T15:26:21.758Z,63.52
2022-12-18T15:28:53.824Z,62.30
2022-12-18T15:31:30.344Z,62.05
2022-12-18T15:33:56.823Z,61.31
2022-12-18T15:36:26.456Z,60.59
2022-12-18T15:38:54.908Z,61.51
2022-12-18T15:41:24.899Z,61.79
2022-12-18T15:43:53.330Z,62.29
2022-12-18T15:46:22.792Z,60.76
2022-12-18T15:48:59.753Z,61.09
2022-12-18T15:51:36.625Z,60.77
2022-12-18T15:54:06.094Z,59.94
2022-12-18T15:56:51.421Z,60.26
2022-12-18T15:59:20.031Z,58.29
2022-12-18T16:01:49.218Z,58.76
2022-12-18T16:04:17.967Z,57.90
2022-12-18T16:07:13.258Z,59.00
2022-12-18T16:09:30.850Z,59.96
2022-12-18T16:11:57.251Z,58.89
2022-12-18T16:14:28.633Z,59.71
2022-12-18T16:16:57.810Z,58.52
2022-12-18T16:19:25.096Z,59.85
2022-12-18T16:21:54.056Z,60.46
2022-12-18T16:24:24.509Z,60.18
2022-12-18T16:26:54.948Z,60.61
2022-12-18T16:29:27.947Z,61.40
2022-12-18T16:31:59.566Z,61.07
2022-12-18T16:34:34.867Z,62.22
2022-12-18T16:37:07.390Z,62.09
2022-12-18T16:39:38.087Z,61.22
2022-12-18T16:42:09.579Z,62.65
2022-12-18T16:44:36.372Z,62.43
2022-12-18T16:47:04.257Z,62.51
2022-12-18T16:49:31.315Z,62.81
2022-12-18T16:51:57.858Z,61.76
2022-12-18T16:54:24.903Z,61.95
2022-12-18T16:56:52.147Z,61.26
2022-12-18T16:59:18.891Z,62.06
2022-12-18T17:01:46.756Z,61.99
2022-12-18T17:04:13.749Z,62.26
2022-12-18T17:06:42.700Z,61.24
2022-12-18T17:09:14.113Z,61.28
2022-12-18T17:11:40.740Z,61.55
2022-12-18T17:14:08.880Z,60.60
2022-12-18T17:16:35.780Z,62.71
2022-12-18T17:19:03.071Z,63.50
2022-12-18T17:21:29.542Z,62.86
2022-12-18T17:23:56.217Z,63.08
2022-12-18T17:26:22.688Z,63.26
2022-12-18T17:28:49.056Z,62.48
2022-12-18T17:31:23.460Z,62.58
2022-12-18T17:33:50.484Z,62.66
2022-12-18T17:36:17.372Z,62.87
2022-12-18T17:38:50.376Z,61.62
2022-12-18T17:41:17.053Z,62.57
2022-12-18T17:43:45.786Z,61.47
2022-12-18T17:46:14.689Z,61.58
2022-12-18T17:48:41.520Z,61.09
2022-12-18T17:51:09.653Z,62.07
2022-12-18T17:53:41.774Z,60.98
2022-12-18T17:56:12.815Z,61.08
2022-12-18T17:58:40.042Z,61.83
2022-12-18T18:01:07.421Z,60.85
2022-12-18T18:03:34.732Z,61.31
2022-12-18T18:06:02.475Z,61.81
2022-12-18T18:08:28.977Z,60.99
2022-12-18T18:10:55.823Z,61.51
2022-12-18T18:13:47.174Z,60.85
2022-12-18T18:16:13.983Z,61.07
2022-12-18T18:18:40.587Z,59.63
2022-12-18T18:21:10.056Z,61.17
2022-12-18T18:23:37.066Z,60.64
2022-12-18T18:26:08.088Z,61.02
2022-12-18T18:28:35.715Z,60.72
2022-12-18T18:31:07.049Z,61.71
2022-12-18T18:33:34.037Z,62.11
2022-12-18T18:36:00.910Z,61.54
2022-12-18T18:38:29.032Z,60.01
2022-12-18T18:41:03.422Z,61.00
2022-12-18T18:43:30.755Z,60.22
2022-12-18T18:46:02.637Z,60.69
2022-12-18T18:48:33.185Z,60.69
2022-12-18T18:51:14.672Z,60.35
2022-12-18T18:53:50.321Z,60.76
2022-12-18T18:59:05.266Z,60.06
2022-12-18T19:01:32.384Z,59.01
2022-12-18T19:03:58.941Z,59.44
2022-12-18T19:06:27.297Z,59.40
2022-12-18T19:08:55.902Z,58.33
2022-12-18T19:11:42.752Z,57.55
2022-12-18T19:14:12.580Z,57.55
2022-12-18T19:16:39.441Z,58.40
2022-12-18T19:19:06.577Z,58.70
2022-12-18T19:21:34.641Z,60.02
2022-12-18T19:24:02.378Z,59.42
2022-12-18T19:26:29.101Z,58.30
2022-12-18T19:29:04.117Z,58.13
2022-12-18T19:31:35.157Z,58.14
2022-12-18T19:34:03.012Z,57.86
2022-12-18T19:36:30.220Z,57.88
2022-12-18T19:38:59.340Z,58.89
2022-12-18T19:41:27.576Z,59.98
2022-12-18T19:43:57.634Z,58.81
2022-12-18T19:46:24.244Z,59.53
2022-12-18T19:48:51.615Z,59.53
2022-12-18T19:51:24.706Z,59.33
2022-12-18T19:53:56.651Z,58.38
2022-12-18T19:56:27.164Z,59.22
2022-12-18T19:58:54.543Z,58.19
2022-12-18T20:01:23.102Z,59.28
2022-12-18T20:03:52.700Z,59.97
2022-12-18T20:06:29.914Z,60.05
2022-12-18T20:09:00.430Z,59.98
2022-12-18T20:11:28.520Z,59.30
2022-12-18T20:13:54.948Z,59.67
2022-12-18T20:16:21.414Z,58.56
2022-12-18T20:18:48.217Z,60.53
2022-12-18T20:21:14.868Z,58.94
2022-12-18T20:23:42.022Z,57.47
2022-12-18T20:26:08.893Z,57.45
2022-12-18T20:28:35.589Z,57.78
2022-12-18T20:31:04.637Z,57.79
2022-12-18T20:33:31.449Z,58.27
2022-12-18T20:36:06.602Z,58.28
2022-12-18T20:38:35.165Z,58.11
2022-12-18T20:41:06.420Z,57.17
2022-12-18T20:43:32.892Z,57.23
2022-12-18T20:46:04.412Z,56.88
2022-12-18T20:48:31.566Z,57.44
2022-12-18T20:51:04.107Z,56.81
2022-12-18T20:53:31.184Z,56.97
2022-12-18T20:55:57.767Z,57.66
2022-12-18T20:58:24.759Z,58.28
2022-12-18T21:01:02.164Z,58.67
2022-12-18T21:03:28.695Z,58.40
2022-12-18T21:05:55.179Z,57.70
2022-12-18T21:08:21.630Z,58.70
2022-12-18T21:10:48.044Z,58.92
2022-12-18T21:13:14.619Z,57.88
2022-12-18T21:15:43.104Z,57.96
2022-12-18T21:18:09.509Z,57.98
2022-12-18T21:20:36.184Z,58.53
2022-12-18T21:23:05.852Z,57.08
2022-12-18T21:25:42.754Z,56.97
2022-12-18T21:28:09.187Z,58.33
2022-12-18T21:30:35.722Z,58.63
2022-12-18T21:33:02.170Z,59.06
2022-12-18T21:35:28.612Z,58.58
2022-12-18T21:37:58.456Z,58.64
2022-12-18T21:40:25.071Z,57.85
2022-12-18T21:43:10.435Z,57.85
2022-12-18T21:45:40.416Z,58.21
2022-12-18T21:48:06.865Z,59.18
2022-12-18T21:50:33.296Z,58.52
2022-12-18T21:52:59.997Z,60.00
2022-12-18T21:55:26.467Z,58.94
2022-12-18T21:57:53.905Z,60.15
2022-12-18T22:00:20.429Z,59.60
2022-12-18T22:02:49.572Z,59.31
2022-12-18T22:05:34.647Z,58.49
2022-12-18T22:08:01.511Z,57.81
2022-12-18T22:10:27.900Z,58.34
2022-12-18T22:12:55.021Z,58.60
2022-12-18T22:15:22.066Z,58.30
2022-12-18T22:17:50.549Z,57.50
2022-12-18T22:20:18.321Z,57.86
2022-12-18T22:22:47.023Z,58.32
2022-12-18T22:25:13.494Z,58.22
2022-12-18T22:27:40.013Z,57.06
2022-12-18T22:30:07.112Z,58.41
2022-12-18T22:32:35.518Z,56.65
2022-12-18T22:35:08.276Z,58.68
2022-12-18T22:37:37.253Z,56.79
2022-12-18T22:40:06.077Z,56.33
2022-12-18T22:42:34.053Z,56.14
2022-12-18T22:45:00.632Z,56.24
2022-12-18T22:47:30.187Z,56.85
2022-12-18T22:49:57.671Z,56.40
2022-12-18T22:52:25.034Z,58.28
2022-12-18T22:54:53.428Z,57.47
2022-12-18T22:57:20.302Z,57.94
2022-12-18T22:59:46.772Z,57.89
2022-12-18T23:02:13.249Z,56.77
2022-12-18T23:04:39.752Z,56.75
2022-12-18T23:07:06.746Z,57.31
2022-12-18T23:09:33.308Z,57.26
2022-12-18T23:12:00.297Z,57.66
2022-12-18T23:14:27.756Z,57.36
2022-12-18T23:16:54.186Z,57.23
2022-12-18T23:19:23.642Z,56.69
2022-12-18T23:21:51.249Z,57.48
2022-12-18T23:24:17.887Z,58.44
2022-12-18T23:26:44.355Z,58.27
2022-12-18T23:29:10.794Z,57.90
2022-12-18T23:31:39.132Z,57.87
2022-12-18T23:34:08.036Z,57.98
2022-12-18T23:36:37.626Z,57.69
2022-12-18T23:39:25.807Z,55.97
2022-12-18T23:41:56.110Z,57.09
2022-12-18T23:44:22.516Z,57.44
2022-12-18T23:46:49.064Z,58.18
2022-12-18T23:49:15.579Z,57.51
2022-12-18T23:51:41.982Z,56.90
2022-12-18T23:54:10.004Z,57.26
2022-12-18T23:56:36.466Z,57.11
2022-12-18T23:59:03.198Z,58.21
